createdAt,value
2018-08-25T00:02:03.307Z,100268.80
2018-08-25T00:04:31.811Z,100265.66
2018-08-25T00:07:00.411Z,100262.69
2018-08-25T00:09:29.287Z,100253.73
2018-08-25T00:11:57.854Z,100261.87
2018-08-25T00:14:26.558Z,100252.31
2018-08-25T00:16:55.090Z,100250.91
2018-08-25T00:19:24.214Z,100235.54
2018-08-25T00:21:52.761Z,100231.47
2018-08-25T00:24:21.610Z,100231.07
2018-08-25T00:26:50.163Z,100232.28
2018-08-25T00:29:18.656Z,100225.55
2018-08-25T00:31:47.601Z,100227.09
2018-08-25T00:34:16.091Z,100223.73
2018-08-25T00:36:44.586Z,100222.09
2018-08-25T00:39:13.085Z,100218.94
2018-08-25T00:41:41.634Z,100224.64
2018-08-25T00:44:10.912Z,100208.27
2018-08-25T00:46:39.414Z,100196.66
2018-08-25T00:49:07.959Z,100197.77
2018-08-25T00:51:36.592Z,100195.02
2018-08-25T00:54:05.198Z,100198.88
2018-08-25T00:56:33.735Z,100204.28
2018-08-25T00:59:02.475Z,100200.92
2018-08-25T01:01:31.037Z,100202.02
2018-08-25T01:03:59.975Z,100198.36
2018-08-25T01:06:28.631Z,100202.91
2018-08-25T01:08:57.224Z,100201.38
2018-08-25T01:11:25.758Z,100198.16
2018-08-25T01:13:54.465Z,100196.30
2018-08-25T01:16:23.084Z,100196.91
2018-08-25T01:18:51.638Z,100187.56
2018-08-25T01:21:20.192Z,100180.95
2018-08-25T01:23:48.730Z,100166.59
2018-08-25T01:26:17.407Z,100165.98
2018-08-25T01:28:45.932Z,100153.23
2018-08-25T01:31:14.500Z,100148.69
2018-08-25T01:33:42.987Z,100143.89
2018-08-25T01:36:11.540Z,100143.39
2018-08-25T01:38:40.111Z,100146.75
2018-08-25T01:41:08.652Z,100150.05
2018-08-25T01:43:37.187Z,100150.26
2018-08-25T01:46:05.734Z,100149.07
2018-08-25T01:48:34.445Z,100150.47
2018-08-25T01:51:03.001Z,100142.68
2018-08-25T01:53:31.479Z,100136.63
2018-08-25T01:56:00.309Z,100134.09
2018-08-25T01:58:28.889Z,100133.62
2018-08-25T02:00:57.398Z,100125.93
2018-08-25T02:03:26.006Z,100126.07
2018-08-25T02:05:54.534Z,100118.23
2018-08-25T02:08:23.109Z,100111.01
2018-08-25T02:10:51.882Z,100107.19
2018-08-25T02:13:20.406Z,100101.95
2018-08-25T02:15:49.497Z,100102.31
2018-08-25T02:18:18.015Z,100101.74
2018-08-25T02:20:46.517Z,100096.44
2018-08-25T02:23:15.022Z,100092.27
2018-08-25T02:25:43.534Z,100100.00
2018-08-25T02:28:12.174Z,100103.17
2018-08-25T02:30:40.661Z,100119.59
2018-08-25T02:33:09.198Z,100117.47
2018-08-25T02:35:37.714Z,100116.97
2018-08-25T02:38:06.271Z,100116.06
2018-08-25T02:40:34.822Z,100111.70
2018-08-25T02:43:03.355Z,100108.65
2018-08-25T02:45:31.851Z,100108.83
2018-08-25T02:48:00.383Z,100095.81
2018-08-25T02:50:28.872Z,100089.94
2018-08-25T02:52:57.325Z,100078.80
2018-08-25T02:55:25.834Z,100078.30
2018-08-25T02:57:54.381Z,100077.09
2018-08-25T03:00:22.928Z,100072.69
2018-08-25T03:02:51.394Z,100066.19
2018-08-25T03:05:19.845Z,100063.93
2018-08-25T03:07:48.314Z,100058.85
2018-08-25T03:10:16.768Z,100062.25
2018-08-25T03:12:45.282Z,100056.92
2018-08-25T03:15:13.741Z,100050.13
2018-08-25T03:17:42.242Z,100053.45
2018-08-25T03:20:10.757Z,100054.91
2018-08-25T03:22:39.257Z,100050.23
2018-08-25T03:25:08.176Z,100039.47
2018-08-25T03:27:36.661Z,100033.83
2018-08-25T03:30:05.227Z,100024.56
2018-08-25T03:32:34.568Z,100024.17
2018-08-25T03:35:03.029Z,100026.50
2018-08-25T03:37:31.559Z,100020.20
2018-08-25T03:40:00.031Z,100012.77
2018-08-25T03:42:28.509Z,100008.68
2018-08-25T03:44:57.057Z,100003.56
2018-08-25T03:47:25.629Z,100006.63
2018-08-25T03:49:54.107Z,99999.51
2018-08-25T03:52:22.609Z,100008.27
2018-08-25T03:54:51.101Z,100001.30
2018-08-25T03:57:19.616Z,99993.73
2018-08-25T03:59:48.141Z,99984.52
2018-08-25T04:02:16.653Z,99990.20
2018-08-25T04:04:45.150Z,99980.66
2018-08-25T04:07:13.610Z,99977.91
2018-08-25T04:09:42.113Z,99983.98
2018-08-25T04:12:10.581Z,99977.69
2018-08-25T04:14:39.063Z,99981.72
2018-08-25T04:17:07.564Z,99976.55
2018-08-25T04:19:36.029Z,99972.59
2018-08-25T04:22:04.572Z,99976.23
2018-08-25T04:24:33.025Z,99966.20
2018-08-25T04:27:01.508Z,99972.18
2018-08-25T04:29:29.994Z,99978.87
2018-08-25T04:31:58.881Z,99969.92
2018-08-25T04:34:27.421Z,99967.39
2018-08-25T04:36:55.933Z,99975.32
2018-08-25T04:39:24.416Z,99976.91
2018-08-25T04:41:52.921Z,99971.97
2018-08-25T04:44:21.433Z,99976.33
2018-08-25T04:46:49.949Z,99970.08
2018-08-25T04:49:18.868Z,99975.44
2018-08-25T04:51:47.385Z,99962.82
2018-08-25T04:54:15.941Z,99967.99
2018-08-25T04:56:44.504Z,99972.48
2018-08-25T04:59:13.016Z,99969.07
2018-08-25T05:01:41.547Z,99974.53
2018-08-25T05:04:10.009Z,99976.94
2018-08-25T05:06:38.472Z,99975.24
2018-08-25T05:09:09.336Z,99974.91
2018-08-25T05:11:37.853Z,99968.34
2018-08-25T05:14:06.383Z,99964.98
2018-08-25T05:16:34.846Z,99966.76
2018-08-25T05:19:03.361Z,99972.61
2018-08-25T05:21:31.857Z,99971.23
2018-08-25T05:24:00.321Z,99967.19
2018-08-25T05:26:29.252Z,99971.16
2018-08-25T05:28:57.705Z,99969.45
2018-08-25T05:31:26.189Z,99972.66
2018-08-25T05:33:55.150Z,99968.80
2018-08-25T05:36:23.625Z,99975.40
2018-08-25T05:38:52.069Z,99975.95
2018-08-25T05:41:20.625Z,99982.17
2018-08-25T05:43:49.106Z,99981.95
2018-08-25T05:46:17.721Z,99974.08
2018-08-25T05:48:46.253Z,99978.66
2018-08-25T05:51:14.765Z,99977.27
2018-08-25T05:53:43.233Z,99972.87
2018-08-25T05:56:11.768Z,99972.22
2018-08-25T05:58:40.256Z,99970.00
2018-08-25T06:01:09.422Z,99977.05
2018-08-25T06:03:37.936Z,99969.72
2018-08-25T06:06:06.502Z,99980.77
2018-08-25T06:08:35.012Z,99981.35
2018-08-25T06:11:03.551Z,99984.15
2018-08-25T06:13:32.063Z,99988.95
2018-08-25T06:16:00.491Z,99988.45
2018-08-25T06:18:29.053Z,99994.28
2018-08-25T06:20:57.521Z,99991.56
2018-08-25T06:23:25.994Z,99998.78
2018-08-25T06:25:54.566Z,99999.61
2018-08-25T06:28:23.555Z,100010.36
2018-08-25T06:30:52.081Z,100016.08
2018-08-25T06:33:20.549Z,100017.62
2018-08-25T06:35:49.004Z,100020.05
2018-08-25T06:38:17.497Z,100024.70
2018-08-25T06:40:45.997Z,100031.31
2018-08-25T06:43:14.497Z,100028.88
2018-08-25T06:45:43.008Z,100032.48
2018-08-25T06:48:11.878Z,100045.23
2018-08-25T06:50:40.342Z,100048.88
2018-08-25T06:53:08.844Z,100049.45
2018-08-25T06:55:37.358Z,100059.33
2018-08-25T06:58:06.045Z,100052.45
2018-08-25T07:00:34.547Z,100059.98
2018-08-25T07:03:03.094Z,100063.02
2018-08-25T07:05:31.642Z,100065.75
2018-08-25T07:08:00.134Z,100068.12
2018-08-25T07:10:28.644Z,100072.47
2018-08-25T07:12:57.190Z,100071.90
2018-08-25T07:15:25.684Z,100076.16
2018-08-25T07:17:54.203Z,100085.56
2018-08-25T07:20:23.110Z,100092.41
2018-08-25T07:22:51.593Z,100091.05
2018-08-25T07:25:20.060Z,100091.17
2018-08-25T07:27:48.545Z,100100.63
2018-08-25T07:30:17.046Z,100104.30
2018-08-25T07:32:45.523Z,100105.02
2018-08-25T07:35:14.133Z,100106.36
2018-08-25T07:37:42.657Z,100119.55
2018-08-25T07:40:11.141Z,100117.53
2018-08-25T07:42:39.665Z,100120.92
2018-08-25T07:45:08.640Z,100123.27
2018-08-25T07:47:37.165Z,100130.27
2018-08-25T07:50:06.349Z,100134.34
2018-08-25T07:52:34.873Z,100131.19
2018-08-25T07:55:03.397Z,100132.57
2018-08-25T07:57:31.928Z,100137.84
2018-08-25T08:00:00.426Z,100144.48
2018-08-25T08:02:28.940Z,100142.52
2018-08-25T08:04:57.434Z,100146.14
2018-08-25T08:07:25.916Z,100147.50
2018-08-25T08:09:54.432Z,100149.72
2018-08-25T08:12:23.022Z,100149.98
2018-08-25T08:14:51.433Z,100157.61
2018-08-25T08:17:19.930Z,100165.82
2018-08-25T08:19:48.417Z,100166.89
2018-08-25T08:22:16.977Z,100168.94
2018-08-25T08:24:45.462Z,100160.86
2018-08-25T08:27:13.925Z,100168.73
2018-08-25T08:29:42.743Z,100170.81
2018-08-25T08:32:11.211Z,100174.87
2018-08-25T08:34:39.672Z,100176.19
2018-08-25T08:37:08.318Z,100190.80
2018-08-25T08:39:38.504Z,100194.01
2018-08-25T08:42:07.303Z,100199.33
2018-08-25T08:44:35.773Z,100195.02
2018-08-25T08:47:04.561Z,100190.84
2018-08-25T08:49:33.053Z,100198.66
2018-08-25T08:52:01.579Z,100198.40
2018-08-25T08:54:30.105Z,100200.80
2018-08-25T08:56:58.585Z,100200.38
2018-08-25T08:59:27.657Z,100200.37
2018-08-25T09:01:56.286Z,100210.11
2018-08-25T09:04:24.827Z,100216.02
2018-08-25T09:06:53.345Z,100213.11
2018-08-25T09:09:21.834Z,100224.94
2018-08-25T09:11:50.387Z,100227.02
2018-08-25T09:14:18.858Z,100226.32
2018-08-25T09:16:47.358Z,100212.27
2018-08-25T09:19:15.873Z,100224.02
2018-08-25T09:21:44.422Z,100231.58
2018-08-25T09:24:12.926Z,100230.73
2018-08-25T09:26:41.413Z,100235.88
2018-08-25T09:29:09.895Z,100234.84
2018-08-25T09:31:38.360Z,100234.73
2018-08-25T09:34:06.910Z,100234.05
2018-08-25T09:36:35.617Z,100243.95
2018-08-25T09:39:04.573Z,100238.93
2018-08-25T09:41:33.137Z,100236.94
2018-08-25T09:44:01.645Z,100245.72
2018-08-25T09:46:30.108Z,100249.53
2018-08-25T09:48:58.785Z,100245.31
2018-08-25T09:51:27.237Z,100242.50
2018-08-25T09:53:55.713Z,100238.00
2018-08-25T09:56:24.226Z,100237.77
2018-08-25T09:58:52.713Z,100237.36
2018-08-25T10:01:26.795Z,100238.97
2018-08-25T10:03:55.301Z,100240.49
2018-08-25T10:06:23.786Z,100233.69
2018-08-25T10:08:52.417Z,100244.09
2018-08-25T10:11:21.081Z,100244.66
2018-08-25T10:13:49.566Z,100244.60
2018-08-25T10:16:18.086Z,100234.98
2018-08-25T10:18:46.593Z,100233.75
2018-08-25T10:21:15.106Z,100232.48
2018-08-25T10:23:43.854Z,100232.08
2018-08-25T10:26:12.325Z,100227.26
2018-08-25T10:28:40.834Z,100234.61
2018-08-25T10:31:09.293Z,100227.95
2018-08-25T10:33:37.796Z,100230.14
2018-08-25T10:36:06.378Z,100229.41
2018-08-25T10:38:35.012Z,100221.03
2018-08-25T10:41:03.552Z,100229.55
2018-08-25T10:43:32.030Z,100221.58
2018-08-25T10:46:00.566Z,100229.30
2018-08-25T10:48:29.121Z,100239.49
2018-08-25T10:50:58.406Z,100254.15
2018-08-25T10:53:26.926Z,100268.34
2018-08-25T10:55:55.435Z,100265.01
2018-08-25T10:58:23.933Z,100259.83
2018-08-25T11:00:52.589Z,100251.43
2018-08-25T11:03:20.970Z,100248.49
2018-08-25T11:05:49.529Z,100241.08
2018-08-25T11:08:17.993Z,100241.77
2018-08-25T11:10:47.562Z,100239.74
2018-08-25T11:13:16.059Z,100240.13
2018-08-25T11:15:44.513Z,100248.13
2018-08-25T11:18:13.041Z,100241.70
2018-08-25T11:20:41.541Z,100234.24
2018-08-25T11:23:10.038Z,100243.23
2018-08-25T11:25:38.553Z,100255.16
2018-08-25T11:28:07.087Z,100245.41
2018-08-25T11:30:35.660Z,100240.87
2018-08-25T11:33:04.287Z,100249.14
2018-08-25T11:35:32.774Z,100251.25
2018-08-25T11:38:01.398Z,100255.94
2018-08-25T11:40:29.829Z,100248.80
2018-08-25T11:42:58.352Z,100254.72
2018-08-25T11:45:26.906Z,100251.91
2018-08-25T11:47:55.391Z,100257.13
2018-08-25T11:50:23.875Z,100259.69
2018-08-25T11:52:52.442Z,100264.08
2018-08-25T11:55:21.026Z,100257.65
2018-08-25T11:57:49.633Z,100250.51
2018-08-25T12:00:18.189Z,100251.09
2018-08-25T12:02:46.656Z,100251.28
2018-08-25T12:05:15.146Z,100261.64
2018-08-25T12:07:43.728Z,100276.20
2018-08-25T12:10:12.222Z,100274.72
2018-08-25T12:12:40.757Z,100279.10
2018-08-25T12:15:09.290Z,100306.98
2018-08-25T12:17:38.029Z,100328.41
2018-08-25T12:20:06.950Z,100313.52
2018-08-25T12:22:35.480Z,100304.39
2018-08-25T12:25:03.991Z,100303.31
2018-08-25T12:27:32.445Z,100308.12
2018-08-25T12:30:01.015Z,100304.67
2018-08-25T12:32:29.619Z,100301.16
2018-08-25T12:34:58.162Z,100303.95
2018-08-25T12:37:26.733Z,100301.19
2018-08-25T12:39:55.708Z,100294.81
2018-08-25T12:42:24.254Z,100290.47
2018-08-25T12:44:52.757Z,100288.30
2018-08-25T12:47:24.370Z,100294.09
2018-08-25T12:49:54.041Z,100291.55
2018-08-25T12:52:22.847Z,100291.58
2018-08-25T12:54:51.365Z,100296.45
2018-08-25T12:57:20.745Z,100300.64
2018-08-25T12:59:49.263Z,100303.88
2018-08-25T13:02:17.774Z,100321.19
2018-08-25T13:04:46.245Z,100318.44
2018-08-25T13:07:15.326Z,100331.75
2018-08-25T13:09:45.183Z,100332.10
2018-08-25T13:12:14.124Z,100330.81
2018-08-25T13:14:43.444Z,100346.55
2018-08-25T13:17:11.923Z,100366.02
2018-08-25T13:19:40.403Z,100388.77
2018-08-25T13:22:08.933Z,100369.13
2018-08-25T13:24:37.410Z,100361.59
2018-08-25T13:27:05.888Z,100360.02
2018-08-25T13:29:34.410Z,100358.41
2018-08-25T13:32:02.933Z,100363.08
2018-08-25T13:34:31.437Z,100378.30
2018-08-25T13:36:59.985Z,100378.63
2018-08-25T13:39:28.525Z,100380.29
2018-08-25T13:41:57.149Z,100384.36
2018-08-25T13:44:25.697Z,100378.31
2018-08-25T13:46:54.239Z,100375.05
2018-08-25T13:49:22.780Z,100378.40
2018-08-25T13:51:51.300Z,100382.53
2018-08-25T13:54:19.806Z,100385.48
2018-08-25T13:56:48.278Z,100382.61
2018-08-25T13:59:16.784Z,100387.20
2018-08-25T14:01:45.261Z,100395.25
2018-08-25T14:04:13.705Z,100393.60
2018-08-25T14:06:42.202Z,100401.02
2018-08-25T14:09:10.746Z,100428.17
2018-08-25T14:11:39.249Z,100449.73
2018-08-25T14:14:07.698Z,100443.02
2018-08-25T14:16:36.152Z,100454.38
2018-08-25T14:19:04.841Z,100453.84
2018-08-25T14:21:33.352Z,100453.53
2018-08-25T14:24:01.831Z,100445.70
2018-08-25T14:26:30.438Z,100447.67
2018-08-25T14:28:59.028Z,100447.32
2018-08-25T14:31:27.860Z,100447.14
2018-08-25T14:33:56.377Z,100440.36
2018-08-25T14:36:24.968Z,100444.00
2018-08-25T14:38:53.522Z,100442.67
2018-08-25T14:41:21.992Z,100436.47
2018-08-25T14:43:50.517Z,100439.48
2018-08-25T14:46:19.062Z,100428.80
2018-08-25T14:48:47.525Z,100433.17
2018-08-25T14:51:16.076Z,100431.11
2018-08-25T14:53:44.718Z,100437.39
2018-08-25T14:56:13.334Z,100431.91
2018-08-25T14:58:41.845Z,100438.49
2018-08-25T15:01:10.305Z,100443.61
2018-08-25T15:03:38.786Z,100444.97
2018-08-25T15:06:07.242Z,100436.90
2018-08-25T15:08:36.123Z,100440.32
2018-08-25T15:11:04.606Z,100440.63
2018-08-25T15:13:33.109Z,100443.84
2018-08-25T15:16:01.612Z,100445.96
2018-08-25T15:18:30.408Z,100450.38
2018-08-25T15:20:58.887Z,100444.48
2018-08-25T15:23:27.364Z,100453.98
2018-08-25T15:25:55.890Z,100448.09
2018-08-25T15:28:24.415Z,100450.72
2018-08-25T15:30:52.932Z,100456.25
2018-08-25T15:33:21.518Z,100467.56
2018-08-25T15:35:50.065Z,100468.42
2018-08-25T15:38:18.525Z,100480.32
2018-08-25T15:40:47.016Z,100484.31
2018-08-25T15:43:15.517Z,100492.06
2018-08-25T15:45:44.367Z,100496.64
2018-08-25T15:48:12.869Z,100480.69
2018-08-25T15:50:41.489Z,100484.71
2018-08-25T15:53:09.986Z,100491.14
2018-08-25T15:55:38.437Z,100508.39
2018-08-25T15:58:07.350Z,100527.81
2018-08-25T16:00:35.837Z,100548.02
2018-08-25T16:03:04.301Z,100551.88
2018-08-25T16:05:32.842Z,100558.98
2018-08-25T16:08:01.332Z,100550.81
2018-08-25T16:10:29.830Z,100539.11
2018-08-25T16:12:58.306Z,100535.84
2018-08-25T16:15:26.837Z,100527.45
2018-08-25T16:17:55.369Z,100519.05
2018-08-25T16:20:23.906Z,100523.83
2018-08-25T16:22:52.429Z,100529.17
2018-08-25T16:25:20.994Z,100527.75
2018-08-25T16:27:49.461Z,100530.44
2018-08-25T16:30:17.958Z,100528.67
2018-08-25T16:32:46.501Z,100526.75
2018-08-25T16:35:14.961Z,100525.33
2018-08-25T16:37:43.626Z,100531.48
2018-08-25T16:40:12.406Z,100534.50
2018-08-25T16:42:40.921Z,100537.05
2018-08-25T16:45:09.401Z,100532.66
2018-08-25T16:47:37.913Z,100535.43
2018-08-25T16:50:06.800Z,100533.69
2018-08-25T16:52:35.269Z,100536.88
2018-08-25T16:55:03.854Z,100544.35
2018-08-25T16:57:32.300Z,100543.70
2018-08-25T17:00:00.784Z,100538.54
2018-08-25T17:02:29.655Z,100542.81
2018-08-25T17:04:58.151Z,100544.86
2018-08-25T17:07:26.617Z,100546.56
2018-08-25T17:09:55.314Z,100551.28
2018-08-25T17:12:23.881Z,100552.34
2018-08-25T17:14:52.393Z,100554.73
2018-08-25T17:17:20.896Z,100561.00
2018-08-25T17:19:49.369Z,100565.70
2018-08-25T17:22:17.860Z,100564.95
2018-08-25T17:24:46.428Z,100571.50
2018-08-25T17:27:14.909Z,100573.06
2018-08-25T17:29:43.437Z,100574.97
2018-08-25T17:32:11.982Z,100596.55
2018-08-25T17:34:40.465Z,100609.20
2018-08-25T17:37:08.965Z,100620.75
2018-08-25T17:39:37.454Z,100617.77
2018-08-25T17:42:06.016Z,100615.63
2018-08-25T17:44:34.480Z,100620.45
2018-08-25T17:47:02.965Z,100623.61
2018-08-25T17:49:31.487Z,100616.54
2018-08-25T17:51:59.972Z,100621.44
2018-08-25T17:54:28.470Z,100637.73
2018-08-25T17:56:57.107Z,100638.64
2018-08-25T17:59:25.532Z,100637.81
2018-08-25T18:01:54.075Z,100637.71
2018-08-25T18:04:22.581Z,100640.24
2018-08-25T18:06:51.036Z,100656.41
2018-08-25T18:09:19.521Z,100657.63
2018-08-25T18:11:48.055Z,100659.41
2018-08-25T18:14:16.541Z,100659.08
2018-08-25T18:16:45.061Z,100657.61
2018-08-25T18:19:13.541Z,100659.69
2018-08-25T18:21:42.419Z,100666.08
2018-08-25T18:24:10.947Z,100662.73
2018-08-25T18:26:39.423Z,100664.83
2018-08-25T18:29:07.997Z,100666.84
2018-08-25T18:31:36.496Z,100673.31
2018-08-25T18:34:04.998Z,100674.61
2018-08-25T18:36:33.526Z,100677.68
2018-08-25T18:39:02.073Z,100676.09
2018-08-25T18:41:30.574Z,100674.37
2018-08-25T18:43:59.042Z,100673.22
2018-08-25T18:46:27.670Z,100682.91
2018-08-25T18:48:56.203Z,100677.18
2018-08-25T18:51:24.717Z,100680.81
2018-08-25T18:53:53.307Z,100683.12
2018-08-25T18:56:21.770Z,100675.69
2018-08-25T18:58:50.385Z,100687.98
2018-08-25T19:01:18.877Z,100687.30
2018-08-25T19:03:47.381Z,100685.19
2018-08-25T19:06:15.900Z,100691.44
2018-08-25T19:08:44.405Z,100701.39
2018-08-25T19:11:12.925Z,100698.05
2018-08-25T19:13:41.389Z,100702.38
2018-08-25T19:16:10.279Z,100705.66
2018-08-25T19:18:38.724Z,100708.45
2018-08-25T19:21:07.338Z,100718.56
2018-08-25T19:23:35.815Z,100714.00
2018-08-25T19:26:04.284Z,100716.55
2018-08-25T19:28:32.776Z,100720.62
2018-08-25T19:31:01.242Z,100719.98
2018-08-25T19:33:29.768Z,100731.30
2018-08-25T19:35:58.262Z,100730.41
2018-08-25T19:38:26.784Z,100734.69
2018-08-25T19:40:55.317Z,100734.58
2018-08-25T19:43:23.898Z,100737.66
2018-08-25T19:45:52.768Z,100733.05
2018-08-25T19:48:21.327Z,100732.94
2018-08-25T19:50:49.849Z,100724.62
2018-08-25T19:53:18.320Z,100713.80
2018-08-25T19:55:46.820Z,100721.28
2018-08-25T19:58:15.313Z,100729.19
2018-08-25T20:00:43.800Z,100731.45
2018-08-25T20:03:12.309Z,100737.28
2018-08-25T20:05:40.967Z,100742.94
2018-08-25T20:08:09.325Z,100742.00
2018-08-25T20:10:37.825Z,100740.04
2018-08-25T20:13:06.468Z,100746.00
2018-08-25T20:15:34.967Z,100741.09
2018-08-25T20:18:03.521Z,100749.70
2018-08-25T20:20:32.088Z,100747.70
2018-08-25T20:23:00.557Z,100760.45
2018-08-25T20:25:29.016Z,100755.40
2018-08-25T20:27:57.557Z,100763.39
2018-08-25T20:30:26.101Z,100761.05
2018-08-25T20:32:54.549Z,100767.16
2018-08-25T20:35:23.426Z,100765.32
2018-08-25T20:37:51.877Z,100769.54
2018-08-25T20:40:20.385Z,100767.16
2018-08-25T20:42:48.883Z,100773.95
2018-08-25T20:45:17.355Z,100774.94
2018-08-25T20:47:45.801Z,100777.13
2018-08-25T20:50:14.337Z,100769.77
2018-08-25T20:52:42.832Z,100768.63
2018-08-25T20:55:11.361Z,100770.48
2018-08-25T20:57:39.795Z,100771.80
2018-08-25T21:00:08.762Z,100766.52
2018-08-25T21:02:37.231Z,100765.34
2018-08-25T21:05:05.728Z,100763.84
2018-08-25T21:07:34.269Z,100761.20
2018-08-25T21:10:02.778Z,100757.20
2018-08-25T21:12:31.238Z,100758.70
2018-08-25T21:14:59.761Z,100759.28
2018-08-25T21:17:28.248Z,100758.72
2018-08-25T21:19:56.790Z,100767.43
2018-08-25T21:22:25.259Z,100770.56
2018-08-25T21:24:53.718Z,100767.05
2018-08-25T21:27:22.230Z,100778.86
2018-08-25T21:29:50.742Z,100774.56
2018-08-25T21:32:19.221Z,100786.75
2018-08-25T21:34:47.695Z,100780.04
2018-08-25T21:37:16.245Z,100778.34
2018-08-25T21:39:44.699Z,100777.43
2018-08-25T21:42:13.156Z,100775.59
2018-08-25T21:44:41.634Z,100784.11
2018-08-25T21:47:10.126Z,100786.14
2018-08-25T21:49:38.666Z,100794.70
2018-08-25T21:52:07.199Z,100797.45
2018-08-25T21:54:35.649Z,100794.28
2018-08-25T21:57:04.530Z,100792.87
2018-08-25T21:59:32.986Z,100795.62
2018-08-25T22:02:01.446Z,100801.75
2018-08-25T22:04:30.325Z,100807.71
2018-08-25T22:06:58.867Z,100809.73
2018-08-25T22:09:27.350Z,100806.58
2018-08-25T22:11:55.974Z,100810.63
2018-08-25T22:14:24.520Z,100814.98
2018-08-25T22:16:53.162Z,100814.39
2018-08-25T22:19:22.710Z,100817.36
2018-08-25T22:21:51.149Z,100828.27
2018-08-25T22:24:19.638Z,100825.98
2018-08-25T22:26:48.135Z,100825.05
2018-08-25T22:29:16.607Z,100826.98
2018-08-25T22:31:45.533Z,100827.40
2018-08-25T22:34:13.990Z,100823.44
2018-08-25T22:36:42.491Z,100826.98
2018-08-25T22:39:12.313Z,100824.40
2018-08-25T22:41:40.955Z,100828.53
2018-08-25T22:44:10.201Z,100822.27
2018-08-25T22:46:38.869Z,100825.07
2018-08-25T22:49:07.804Z,100822.27
2018-08-25T22:51:36.309Z,100824.97
2018-08-25T22:54:04.869Z,100822.69
2018-08-25T22:56:33.361Z,100823.48
2018-08-25T22:59:01.836Z,100826.13
2018-08-25T23:01:30.676Z,100830.44
2018-08-25T23:03:59.135Z,100830.98
2018-08-25T23:06:27.614Z,100835.73
2018-08-25T23:08:56.141Z,100844.30
2018-08-25T23:11:24.615Z,100846.04
2018-08-25T23:13:53.649Z,100843.06
2018-08-25T23:16:22.165Z,100835.52
2018-08-25T23:18:51.202Z,100838.16
2018-08-25T23:21:19.686Z,100838.88
2018-08-25T23:23:48.166Z,100838.28
2018-08-25T23:26:16.689Z,100839.61
2018-08-25T23:28:45.193Z,100835.66
2018-08-25T23:31:13.701Z,100837.47
2018-08-25T23:33:42.214Z,100833.37
2018-08-25T23:36:10.704Z,100836.98
2018-08-25T23:38:39.616Z,100832.67
2018-08-25T23:41:08.066Z,100829.06
2018-08-25T23:43:36.629Z,100830.03
2018-08-25T23:46:05.206Z,100833.99
2018-08-25T23:48:33.698Z,100836.85
2018-08-25T23:51:02.138Z,100836.02
2018-08-25T23:53:30.622Z,100839.48
2018-08-25T23:55:59.102Z,100839.95
2018-08-25T23:58:27.658Z,100842.96
